sensor_id;sensor_type;location;lat;lon;timestamp;P1;durP1;ratioP1;P2;durP2;ratioP2
4694;SDS011;2361;49.540;8.390;2023-12-22T00:02:03;0.40;;;0.40;;
4694;SDS011;2361;49.540;8.390;2023-12-22T00:04:25;0.30;;;0.30;;
4694;SDS011;2361;49.540;8.390;2023-12-22T00:06:47;0.40;;;0.40;;
4694;SDS011;2361;49.540;8.390;2023-12-22T00:09:10;0.40;;;0.40;;
4694;SDS011;2361;49.540;8.390;2023-12-22T00:11:32;0.40;;;0.40;;
4694;SDS011;2361;49.540;8.390;2023-12-22T00:13:53;0.30;;;0.30;;
4694;SDS011;2361;49.540;8.390;2023-12-22T00:16:15;0.30;;;0.30;;
4694;SDS011;2361;49.540;8.390;2023-12-22T00:18:37;0.30;;;0.30;;
4694;SDS011;2361;49.540;8.390;2023-12-22T00:20:59;0.30;;;0.30;;
4694;SDS011;2361;49.540;8.390;2023-12-22T00:23:21;0.30;;;0.30;;
4694;SDS011;2361;49.540;8.390;2023-12-22T00:25:43;0.30;;;0.30;;
4694;SDS011;2361;49.540;8.390;2023-12-22T00:28:05;0.30;;;0.30;;
4694;SDS011;2361;49.540;8.390;2023-12-22T00:30:27;0.30;;;0.30;;
4694;SDS011;2361;49.540;8.390;2023-12-22T00:32:49;0.30;;;0.30;;
4694;SDS011;2361;49.540;8.390;2023-12-22T00:35:11;0.40;;;0.40;;
4694;SDS011;2361;49.540;8.390;2023-12-22T00:37:33;0.30;;;0.30;;
4694;SDS011;2361;49.540;8.390;2023-12-22T00:39:55;0.40;;;0.40;;
4694;SDS011;2361;49.540;8.390;2023-12-22T00:42:18;0.90;;;0.40;;
4694;SDS011;2361;49.540;8.390;2023-12-22T00:44:40;0.50;;;0.38;;
4694;SDS011;2361;49.540;8.390;2023-12-22T00:47:02;0.30;;;0.30;;
4694;SDS011;2361;49.540;8.390;2023-12-22T00:49:24;0.37;;;0.37;;
4694;SDS011;2361;49.540;8.390;2023-12-22T00:51:46;0.90;;;0.50;;
4694;SDS011;2361;49.540;8.390;2023-12-22T00:54:08;0.40;;;0.30;;
4694;SDS011;2361;49.540;8.390;2023-12-22T00:56:30;0.40;;;0.40;;
4694;SDS011;2361;49.540;8.390;2023-12-22T00:58:52;0.45;;;0.30;;
4694;SDS011;2361;49.540;8.390;2023-12-22T01:01:25;1.30;;;0.30;;
4694;SDS011;2361;49.540;8.390;2023-12-22T01:03:47;0.30;;;0.30;;
4694;SDS011;2361;49.540;8.390;2023-12-22T01:06:09;0.35;;;0.35;;
4694;SDS011;2361;49.540;8.390;2023-12-22T01:08:31;0.30;;;0.30;;
4694;SDS011;2361;49.540;8.390;2023-12-22T01:10:53;0.60;;;0.40;;
4694;SDS011;2361;49.540;8.390;2023-12-22T01:13:15;0.40;;;0.40;;
4694;SDS011;2361;49.540;8.390;2023-12-22T01:15:37;0.40;;;0.40;;
4694;SDS011;2361;49.540;8.390;2023-12-22T01:17:59;0.60;;;0.40;;
4694;SDS011;2361;49.540;8.390;2023-12-22T01:20:21;1.50;;;0.50;;
4694;SDS011;2361;49.540;8.390;2023-12-22T01:22:42;1.40;;;0.50;;
4694;SDS011;2361;49.540;8.390;2023-12-22T01:25:05;0.70;;;0.70;;
4694;SDS011;2361;49.540;8.390;2023-12-22T01:27:27;0.40;;;0.40;;
4694;SDS011;2361;49.540;8.390;2023-12-22T01:29:49;0.50;;;0.47;;
4694;SDS011;2361;49.540;8.390;2023-12-22T01:32:11;2.20;;;0.50;;
4694;SDS011;2361;49.540;8.390;2023-12-22T01:34:33;0.80;;;0.50;;
4694;SDS011;2361;49.540;8.390;2023-12-22T01:36:55;1.80;;;0.73;;
4694;SDS011;2361;49.540;8.390;2023-12-22T01:39:17;0.90;;;0.60;;
4694;SDS011;2361;49.540;8.390;2023-12-22T01:41:41;1.37;;;0.60;;
4694;SDS011;2361;49.540;8.390;2023-12-22T01:44:03;0.60;;;0.60;;
4694;SDS011;2361;49.540;8.390;2023-12-22T01:46:25;1.40;;;0.60;;
4694;SDS011;2361;49.540;8.390;2023-12-22T01:48:47;0.70;;;0.70;;
4694;SDS011;2361;49.540;8.390;2023-12-22T01:51:09;1.10;;;0.70;;
4694;SDS011;2361;49.540;8.390;2023-12-22T01:53:31;3.42;;;0.70;;
4694;SDS011;2361;49.540;8.390;2023-12-22T01:55:57;0.90;;;0.70;;
4694;SDS011;2361;49.540;8.390;2023-12-22T01:58:24;0.70;;;0.70;;
4694;SDS011;2361;49.540;8.390;2023-12-22T02:00:48;1.60;;;0.50;;
4694;SDS011;2361;49.540;8.390;2023-12-22T02:03:10;1.10;;;0.60;;
4694;SDS011;2361;49.540;8.390;2023-12-22T02:05:32;2.28;;;0.80;;
4694;SDS011;2361;49.540;8.390;2023-12-22T02:07:54;2.00;;;0.80;;
4694;SDS011;2361;49.540;8.390;2023-12-22T02:10:16;1.27;;;0.95;;
4694;SDS011;2361;49.540;8.390;2023-12-22T02:12:38;1.00;;;0.90;;
4694;SDS011;2361;49.540;8.390;2023-12-22T02:15:00;0.90;;;0.70;;
4694;SDS011;2361;49.540;8.390;2023-12-22T02:20:40;2.88;;;1.17;;
4694;SDS011;2361;49.540;8.390;2023-12-22T02:23:05;1.10;;;0.90;;
4694;SDS011;2361;49.540;8.390;2023-12-22T02:25:27;1.90;;;0.90;;
4694;SDS011;2361;49.540;8.390;2023-12-22T02:27:50;0.90;;;0.60;;
4694;SDS011;2361;49.540;8.390;2023-12-22T02:30:19;0.95;;;0.60;;
4694;SDS011;2361;49.540;8.390;2023-12-22T02:32:55;0.90;;;0.60;;
4694;SDS011;2361;49.540;8.390;2023-12-22T02:35:23;1.83;;;0.68;;
4694;SDS011;2361;49.540;8.390;2023-12-22T02:37:47;0.90;;;0.77;;
4694;SDS011;2361;49.540;8.390;2023-12-22T02:40:11;2.40;;;0.70;;
4694;SDS011;2361;49.540;8.390;2023-12-22T02:42:33;2.40;;;0.60;;
4694;SDS011;2361;49.540;8.390;2023-12-22T02:44:57;2.13;;;0.70;;
4694;SDS011;2361;49.540;8.390;2023-12-22T02:47:20;0.68;;;0.68;;
4694;SDS011;2361;49.540;8.390;2023-12-22T02:49:41;2.83;;;0.88;;
4694;SDS011;2361;49.540;8.390;2023-12-22T02:52:03;3.42;;;0.80;;
4694;SDS011;2361;49.540;8.390;2023-12-22T02:54:26;1.30;;;0.90;;
4694;SDS011;2361;49.540;8.390;2023-12-22T02:56:51;3.60;;;1.02;;
4694;SDS011;2361;49.540;8.390;2023-12-22T02:59:13;1.00;;;0.90;;
4694;SDS011;2361;49.540;8.390;2023-12-22T03:01:35;1.10;;;0.90;;
4694;SDS011;2361;49.540;8.390;2023-12-22T03:03:57;2.28;;;1.00;;
4694;SDS011;2361;49.540;8.390;2023-12-22T03:06:19;3.22;;;0.70;;
4694;SDS011;2361;49.540;8.390;2023-12-22T03:08:41;3.60;;;0.70;;
4694;SDS011;2361;49.540;8.390;2023-12-22T03:11:03;0.65;;;0.65;;
4694;SDS011;2361;49.540;8.390;2023-12-22T03:13:25;2.75;;;0.90;;
4694;SDS011;2361;49.540;8.390;2023-12-22T03:15:46;1.40;;;0.90;;
4694;SDS011;2361;49.540;8.390;2023-12-22T03:18:08;1.05;;;0.95;;
4694;SDS011;2361;49.540;8.390;2023-12-22T03:20:30;2.17;;;0.90;;
4694;SDS011;2361;49.540;8.390;2023-12-22T03:22:53;1.80;;;0.80;;
4694;SDS011;2361;49.540;8.390;2023-12-22T03:25:15;1.48;;;0.82;;
4694;SDS011;2361;49.540;8.390;2023-12-22T03:27:37;0.90;;;0.75;;
4694;SDS011;2361;49.540;8.390;2023-12-22T03:29:59;1.40;;;0.80;;
4694;SDS011;2361;49.540;8.390;2023-12-22T03:32:23;0.95;;;0.57;;
4694;SDS011;2361;49.540;8.390;2023-12-22T03:34:45;0.70;;;0.70;;
4694;SDS011;2361;49.540;8.390;2023-12-22T03:37:07;1.80;;;0.70;;
4694;SDS011;2361;49.540;8.390;2023-12-22T03:39:29;4.60;;;0.80;;
4694;SDS011;2361;49.540;8.390;2023-12-22T03:41:50;2.00;;;0.80;;
4694;SDS011;2361;49.540;8.390;2023-12-22T03:44:12;0.70;;;0.60;;
4694;SDS011;2361;49.540;8.390;2023-12-22T03:46:34;2.10;;;0.90;;
4694;SDS011;2361;49.540;8.390;2023-12-22T03:48:56;2.60;;;0.80;;
4694;SDS011;2361;49.540;8.390;2023-12-22T03:51:18;0.70;;;0.70;;
4694;SDS011;2361;49.540;8.390;2023-12-22T03:53:40;2.00;;;0.80;;
4694;SDS011;2361;49.540;8.390;2023-12-22T03:56:03;1.17;;;0.80;;
4694;SDS011;2361;49.540;8.390;2023-12-22T03:58:25;3.30;;;0.63;;
4694;SDS011;2361;49.540;8.390;2023-12-22T04:00:47;1.80;;;1.10;;
4694;SDS011;2361;49.540;8.390;2023-12-22T04:03:09;1.42;;;0.70;;
4694;SDS011;2361;49.540;8.390;2023-12-22T04:05:31;2.00;;;0.50;;
4694;SDS011;2361;49.540;8.390;2023-12-22T04:07:53;1.80;;;0.75;;
4694;SDS011;2361;49.540;8.390;2023-12-22T04:10:18;3.60;;;0.60;;
4694;SDS011;2361;49.540;8.390;2023-12-22T04:12:40;2.00;;;0.90;;
4694;SDS011;2361;49.540;8.390;2023-12-22T04:15:02;0.90;;;0.70;;
4694;SDS011;2361;49.540;8.390;2023-12-22T04:17:24;2.10;;;0.60;;
4694;SDS011;2361;49.540;8.390;2023-12-22T04:19:46;1.80;;;0.50;;
4694;SDS011;2361;49.540;8.390;2023-12-22T04:22:08;2.30;;;0.60;;
4694;SDS011;2361;49.540;8.390;2023-12-22T04:24:30;1.90;;;0.90;;
4694;SDS011;2361;49.540;8.390;2023-12-22T04:26:52;1.70;;;0.90;;
4694;SDS011;2361;49.540;8.390;2023-12-22T04:29:14;1.50;;;1.10;;
4694;SDS011;2361;49.540;8.390;2023-12-22T04:31:36;2.30;;;1.00;;
4694;SDS011;2361;49.540;8.390;2023-12-22T04:33:58;1.40;;;0.90;;
4694;SDS011;2361;49.540;8.390;2023-12-22T04:36:21;2.53;;;1.10;;
4694;SDS011;2361;49.540;8.390;2023-12-22T04:38:43;1.17;;;1.00;;
4694;SDS011;2361;49.540;8.390;2023-12-22T04:41:04;1.60;;;0.80;;
4694;SDS011;2361;49.540;8.390;2023-12-22T04:43:26;1.92;;;0.90;;
4694;SDS011;2361;49.540;8.390;2023-12-22T04:45:48;1.50;;;0.70;;
4694;SDS011;2361;49.540;8.390;2023-12-22T04:48:10;3.92;;;0.90;;
4694;SDS011;2361;49.540;8.390;2023-12-22T04:50:32;1.50;;;0.80;;
4694;SDS011;2361;49.540;8.390;2023-12-22T04:52:54;0.60;;;0.60;;
4694;SDS011;2361;49.540;8.390;2023-12-22T04:55:16;0.80;;;0.50;;
4694;SDS011;2361;49.540;8.390;2023-12-22T04:57:39;0.50;;;0.50;;
4694;SDS011;2361;49.540;8.390;2023-12-22T05:00:01;0.70;;;0.40;;
4694;SDS011;2361;49.540;8.390;2023-12-22T05:02:23;1.17;;;0.50;;
4694;SDS011;2361;49.540;8.390;2023-12-22T05:04:45;0.60;;;0.60;;
4694;SDS011;2361;49.540;8.390;2023-12-22T05:07:07;0.90;;;0.60;;
4694;SDS011;2361;49.540;8.390;2023-12-22T05:09:29;1.00;;;0.60;;
4694;SDS011;2361;49.540;8.390;2023-12-22T05:11:51;0.50;;;0.50;;
4694;SDS011;2361;49.540;8.390;2023-12-22T05:14:12;0.80;;;0.60;;
4694;SDS011;2361;49.540;8.390;2023-12-22T05:16:34;3.40;;;0.60;;
4694;SDS011;2361;49.540;8.390;2023-12-22T05:18:57;0.60;;;0.60;;
4694;SDS011;2361;49.540;8.390;2023-12-22T05:21:19;0.88;;;0.70;;
4694;SDS011;2361;49.540;8.390;2023-12-22T05:23:42;0.60;;;0.60;;
4694;SDS011;2361;49.540;8.390;2023-12-22T05:26:04;1.33;;;0.70;;
4694;SDS011;2361;49.540;8.390;2023-12-22T05:28:26;1.85;;;0.80;;
4694;SDS011;2361;49.540;8.390;2023-12-22T05:30:48;1.50;;;0.80;;
4694;SDS011;2361;49.540;8.390;2023-12-22T05:33:10;3.38;;;0.90;;
4694;SDS011;2361;49.540;8.390;2023-12-22T05:35:32;1.45;;;0.70;;
4694;SDS011;2361;49.540;8.390;2023-12-22T05:37:56;1.05;;;0.90;;
4694;SDS011;2361;49.540;8.390;2023-12-22T05:40:18;1.75;;;0.70;;
4694;SDS011;2361;49.540;8.390;2023-12-22T05:42:40;1.50;;;0.60;;
4694;SDS011;2361;49.540;8.390;2023-12-22T05:45:02;2.00;;;1.10;;
4694;SDS011;2361;49.540;8.390;2023-12-22T05:47:24;1.60;;;0.85;;
4694;SDS011;2361;49.540;8.390;2023-12-22T05:49:46;3.90;;;1.00;;
4694;SDS011;2361;49.540;8.390;2023-12-22T05:52:08;3.70;;;0.90;;
4694;SDS011;2361;49.540;8.390;2023-12-22T05:54:30;1.00;;;0.88;;
4694;SDS011;2361;49.540;8.390;2023-12-22T05:56:52;0.95;;;0.90;;
4694;SDS011;2361;49.540;8.390;2023-12-22T05:59:18;2.38;;;1.00;;
4694;SDS011;2361;49.540;8.390;2023-12-22T06:01:40;2.40;;;0.90;;
4694;SDS011;2361;49.540;8.390;2023-12-22T06:04:02;1.90;;;1.20;;
4694;SDS011;2361;49.540;8.390;2023-12-22T06:06:24;5.53;;;1.00;;
4694;SDS011;2361;49.540;8.390;2023-12-22T06:08:46;2.90;;;1.00;;
4694;SDS011;2361;49.540;8.390;2023-12-22T06:11:08;3.75;;;1.20;;
4694;SDS011;2361;49.540;8.390;2023-12-22T06:13:30;1.45;;;0.95;;
4694;SDS011;2361;49.540;8.390;2023-12-22T06:15:52;4.20;;;1.20;;
4694;SDS011;2361;49.540;8.390;2023-12-22T06:18:14;3.72;;;1.40;;
4694;SDS011;2361;49.540;8.390;2023-12-22T06:20:36;2.93;;;1.10;;
4694;SDS011;2361;49.540;8.390;2023-12-22T06:22:58;1.98;;;1.10;;
4694;SDS011;2361;49.540;8.390;2023-12-22T06:25:20;3.30;;;0.90;;
4694;SDS011;2361;49.540;8.390;2023-12-22T06:27:42;1.00;;;0.88;;
4694;SDS011;2361;49.540;8.390;2023-12-22T06:30:07;1.77;;;0.98;;
4694;SDS011;2361;49.540;8.390;2023-12-22T06:32:29;2.50;;;0.90;;
4694;SDS011;2361;49.540;8.390;2023-12-22T06:34:51;4.87;;;1.20;;
4694;SDS011;2361;49.540;8.390;2023-12-22T06:37:13;1.52;;;0.90;;
4694;SDS011;2361;49.540;8.390;2023-12-22T06:39:35;3.15;;;1.42;;
4694;SDS011;2361;49.540;8.390;2023-12-22T06:41:57;2.20;;;0.60;;
4694;SDS011;2361;49.540;8.390;2023-12-22T06:44:19;1.33;;;0.80;;
4694;SDS011;2361;49.540;8.390;2023-12-22T06:46:41;2.63;;;0.82;;
4694;SDS011;2361;49.540;8.390;2023-12-22T06:49:03;1.25;;;0.90;;
4694;SDS011;2361;49.540;8.390;2023-12-22T06:51:28;2.75;;;0.90;;
4694;SDS011;2361;49.540;8.390;2023-12-22T06:53:56;2.38;;;1.10;;
4694;SDS011;2361;49.540;8.390;2023-12-22T06:58:47;1.50;;;0.98;;
4694;SDS011;2361;49.540;8.390;2023-12-22T07:01:10;4.25;;;1.00;;
4694;SDS011;2361;49.540;8.390;2023-12-22T07:03:32;4.72;;;1.25;;
4694;SDS011;2361;49.540;8.390;2023-12-22T07:05:54;2.08;;;0.70;;
4694;SDS011;2361;49.540;8.390;2023-12-22T07:08:16;2.15;;;1.05;;
4694;SDS011;2361;49.540;8.390;2023-12-22T07:10:38;2.92;;;1.10;;
4694;SDS011;2361;49.540;8.390;2023-12-22T07:13:00;1.00;;;0.90;;
4694;SDS011;2361;49.540;8.390;2023-12-22T07:15:22;1.20;;;1.00;;
4694;SDS011;2361;49.540;8.390;2023-12-22T07:17:44;1.80;;;0.80;;
4694;SDS011;2361;49.540;8.390;2023-12-22T07:20:06;5.78;;;0.60;;
4694;SDS011;2361;49.540;8.390;2023-12-22T07:22:30;3.00;;;0.90;;
4694;SDS011;2361;49.540;8.390;2023-12-22T07:24:52;1.60;;;0.90;;
4694;SDS011;2361;49.540;8.390;2023-12-22T07:27:14;1.27;;;0.70;;
4694;SDS011;2361;49.540;8.390;2023-12-22T07:29:36;1.35;;;0.65;;
4694;SDS011;2361;49.540;8.390;2023-12-22T07:31:58;1.73;;;0.80;;
4694;SDS011;2361;49.540;8.390;2023-12-22T07:34:21;0.90;;;0.70;;
4694;SDS011;2361;49.540;8.390;2023-12-22T07:36:44;2.17;;;0.90;;
4694;SDS011;2361;49.540;8.390;2023-12-22T07:39:19;1.30;;;0.80;;
4694;SDS011;2361;49.540;8.390;2023-12-22T07:41:41;3.47;;;1.40;;
4694;SDS011;2361;49.540;8.390;2023-12-22T07:44:03;1.50;;;0.90;;
4694;SDS011;2361;49.540;8.390;2023-12-22T07:46:27;2.10;;;1.00;;
4694;SDS011;2361;49.540;8.390;2023-12-22T07:48:49;0.85;;;0.80;;
4694;SDS011;2361;49.540;8.390;2023-12-22T07:51:13;2.40;;;0.60;;
4694;SDS011;2361;49.540;8.390;2023-12-22T07:53:35;0.93;;;0.60;;
4694;SDS011;2361;49.540;8.390;2023-12-22T07:55:57;1.00;;;0.60;;
4694;SDS011;2361;49.540;8.390;2023-12-22T07:58:20;1.30;;;0.70;;
4694;SDS011;2361;49.540;8.390;2023-12-22T08:00:42;1.30;;;0.60;;
4694;SDS011;2361;49.540;8.390;2023-12-22T08:03:04;1.70;;;0.70;;
4694;SDS011;2361;49.540;8.390;2023-12-22T08:05:26;1.10;;;0.57;;
4694;SDS011;2361;49.540;8.390;2023-12-22T08:07:48;0.60;;;0.60;;
4694;SDS011;2361;49.540;8.390;2023-12-22T08:10:10;0.80;;;0.70;;
4694;SDS011;2361;49.540;8.390;2023-12-22T08:12:32;0.90;;;0.60;;
4694;SDS011;2361;49.540;8.390;2023-12-22T08:14:54;0.70;;;0.60;;
4694;SDS011;2361;49.540;8.390;2023-12-22T08:17:16;1.40;;;0.47;;
4694;SDS011;2361;49.540;8.390;2023-12-22T08:19:38;0.60;;;0.40;;
4694;SDS011;2361;49.540;8.390;2023-12-22T08:22:07;1.30;;;0.60;;
4694;SDS011;2361;49.540;8.390;2023-12-22T08:24:34;0.70;;;0.60;;
4694;SDS011;2361;49.540;8.390;2023-12-22T08:26:56;0.50;;;0.50;;
4694;SDS011;2361;49.540;8.390;2023-12-22T08:29:18;0.90;;;0.60;;
4694;SDS011;2361;49.540;8.390;2023-12-22T08:31:41;1.07;;;0.70;;
4694;SDS011;2361;49.540;8.390;2023-12-22T08:34:04;1.10;;;0.60;;
4694;SDS011;2361;49.540;8.390;2023-12-22T08:36:26;1.70;;;0.70;;
4694;SDS011;2361;49.540;8.390;2023-12-22T08:38:48;0.60;;;0.60;;
4694;SDS011;2361;49.540;8.390;2023-12-22T08:41:11;1.52;;;0.90;;
4694;SDS011;2361;49.540;8.390;2023-12-22T08:43:33;1.10;;;0.70;;
4694;SDS011;2361;49.540;8.390;2023-12-22T08:45:55;1.10;;;0.80;;
4694;SDS011;2361;49.540;8.390;2023-12-22T08:48:17;2.10;;;0.70;;
4694;SDS011;2361;49.540;8.390;2023-12-22T08:50:39;0.85;;;0.85;;
4694;SDS011;2361;49.540;8.390;2023-12-22T08:53:04;0.95;;;0.90;;
4694;SDS011;2361;49.540;8.390;2023-12-22T08:55:26;2.35;;;1.10;;
4694;SDS011;2361;49.540;8.390;2023-12-22T08:57:48;2.30;;;1.10;;
4694;SDS011;2361;49.540;8.390;2023-12-22T09:00:20;2.60;;;1.15;;
4694;SDS011;2361;49.540;8.390;2023-12-22T09:02:42;2.70;;;1.20;;
4694;SDS011;2361;49.540;8.390;2023-12-22T09:05:04;1.17;;;1.10;;
4694;SDS011;2361;49.540;8.390;2023-12-22T09:07:28;1.80;;;1.00;;
4694;SDS011;2361;49.540;8.390;2023-12-22T09:09:50;3.03;;;1.23;;
4694;SDS011;2361;49.540;8.390;2023-12-22T09:12:12;3.65;;;1.30;;
4694;SDS011;2361;49.540;8.390;2023-12-22T09:14:34;3.50;;;1.30;;
4694;SDS011;2361;49.540;8.390;2023-12-22T09:16:56;3.37;;;1.60;;
4694;SDS011;2361;49.540;8.390;2023-12-22T09:19:18;1.73;;;1.13;;
4694;SDS011;2361;49.540;8.390;2023-12-22T09:21:40;3.92;;;1.50;;
4694;SDS011;2361;49.540;8.390;2023-12-22T09:24:03;5.00;;;1.42;;
4694;SDS011;2361;49.540;8.390;2023-12-22T09:26:26;2.78;;;1.40;;
4694;SDS011;2361;49.540;8.390;2023-12-22T09:28:50;3.22;;;1.55;;
4694;SDS011;2361;49.540;8.390;2023-12-22T09:31:12;6.13;;;1.55;;
4694;SDS011;2361;49.540;8.390;2023-12-22T09:33:35;2.70;;;1.30;;
4694;SDS011;2361;49.540;8.390;2023-12-22T09:35:57;3.10;;;1.35;;
4694;SDS011;2361;49.540;8.390;2023-12-22T09:38:19;6.10;;;1.90;;
4694;SDS011;2361;49.540;8.390;2023-12-22T09:40:43;7.07;;;2.00;;
4694;SDS011;2361;49.540;8.390;2023-12-22T09:43:08;7.15;;;1.90;;
4694;SDS011;2361;49.540;8.390;2023-12-22T09:45:30;5.35;;;1.85;;
4694;SDS011;2361;49.540;8.390;2023-12-22T09:47:54;3.40;;;1.10;;
4694;SDS011;2361;49.540;8.390;2023-12-22T09:50:20;6.57;;;1.88;;
4694;SDS011;2361;49.540;8.390;2023-12-22T09:52:43;7.50;;;2.00;;
4694;SDS011;2361;49.540;8.390;2023-12-22T09:55:07;5.13;;;1.63;;
4694;SDS011;2361;49.540;8.390;2023-12-22T09:57:31;5.63;;;1.70;;
4694;SDS011;2361;49.540;8.390;2023-12-22T09:59:54;2.50;;;1.20;;
4694;SDS011;2361;49.540;8.390;2023-12-22T10:02:18;5.40;;;1.90;;
4694;SDS011;2361;49.540;8.390;2023-12-22T10:04:40;8.20;;;1.88;;
4694;SDS011;2361;49.540;8.390;2023-12-22T10:07:02;4.78;;;1.80;;
4694;SDS011;2361;49.540;8.390;2023-12-22T10:09:26;7.15;;;1.90;;
4694;SDS011;2361;49.540;8.390;2023-12-22T10:11:49;5.75;;;1.67;;
4694;SDS011;2361;49.540;8.390;2023-12-22T10:14:14;3.80;;;1.60;;
4694;SDS011;2361;49.540;8.390;2023-12-22T10:16:43;5.65;;;2.03;;
4694;SDS011;2361;49.540;8.390;2023-12-22T10:19:05;4.40;;;1.80;;
4694;SDS011;2361;49.540;8.390;2023-12-22T10:21:29;8.85;;;2.30;;
4694;SDS011;2361;49.540;8.390;2023-12-22T10:23:55;6.00;;;2.50;;
4694;SDS011;2361;49.540;8.390;2023-12-22T10:26:17;7.55;;;2.00;;
4694;SDS011;2361;49.540;8.390;2023-12-22T10:28:39;7.93;;;1.98;;
4694;SDS011;2361;49.540;8.390;2023-12-22T10:31:02;7.80;;;2.00;;
4694;SDS011;2361;49.540;8.390;2023-12-22T10:33:29;6.55;;;1.85;;
4694;SDS011;2361;49.540;8.390;2023-12-22T10:35:51;4.25;;;1.80;;
4694;SDS011;2361;49.540;8.390;2023-12-22T10:38:17;7.47;;;1.70;;
4694;SDS011;2361;49.540;8.390;2023-12-22T10:40:40;6.05;;;1.90;;
4694;SDS011;2361;49.540;8.390;2023-12-22T10:43:03;6.32;;;1.98;;
4694;SDS011;2361;49.540;8.390;2023-12-22T10:45:26;6.20;;;2.00;;
4694;SDS011;2361;49.540;8.390;2023-12-22T10:47:50;9.45;;;1.88;;
4694;SDS011;2361;49.540;8.390;2023-12-22T10:50:13;7.18;;;2.10;;
4694;SDS011;2361;49.540;8.390;2023-12-22T10:52:36;5.28;;;1.90;;
4694;SDS011;2361;49.540;8.390;2023-12-22T10:54:58;6.65;;;1.83;;
4694;SDS011;2361;49.540;8.390;2023-12-22T10:57:21;6.00;;;1.57;;
4694;SDS011;2361;49.540;8.390;2023-12-22T10:59:46;5.40;;;1.70;;
4694;SDS011;2361;49.540;8.390;2023-12-22T11:02:18;5.93;;;1.50;;
4694;SDS011;2361;49.540;8.390;2023-12-22T11:04:41;3.20;;;1.60;;
4694;SDS011;2361;49.540;8.390;2023-12-22T11:07:19;4.72;;;1.50;;
4694;SDS011;2361;49.540;8.390;2023-12-22T11:09:45;6.10;;;1.50;;
4694;SDS011;2361;49.540;8.390;2023-12-22T11:12:11;3.55;;;1.60;;
4694;SDS011;2361;49.540;8.390;2023-12-22T11:14:34;3.88;;;1.38;;
4694;SDS011;2361;49.540;8.390;2023-12-22T11:16:57;7.07;;;1.55;;
4694;SDS011;2361;49.540;8.390;2023-12-22T11:19:22;5.57;;;1.60;;
4694;SDS011;2361;49.540;8.390;2023-12-22T11:21:46;4.22;;;1.30;;
4694;SDS011;2361;49.540;8.390;2023-12-22T11:24:12;5.35;;;1.90;;
4694;SDS011;2361;49.540;8.390;2023-12-22T11:26:37;5.63;;;1.80;;
4694;SDS011;2361;49.540;8.390;2023-12-22T11:29:03;4.07;;;1.77;;
4694;SDS011;2361;49.540;8.390;2023-12-22T11:31:28;3.80;;;2.13;;
4694;SDS011;2361;49.540;8.390;2023-12-22T11:33:53;6.53;;;2.42;;
4694;SDS011;2361;49.540;8.390;2023-12-22T11:36:29;5.32;;;1.90;;
4694;SDS011;2361;49.540;8.390;2023-12-22T11:38:53;11.00;;;3.38;;
4694;SDS011;2361;49.540;8.390;2023-12-22T11:41:19;4.10;;;1.70;;
4694;SDS011;2361;49.540;8.390;2023-12-22T11:43:47;5.45;;;2.05;;
4694;SDS011;2361;49.540;8.390;2023-12-22T11:46:10;7.60;;;1.90;;
4694;SDS011;2361;49.540;8.390;2023-12-22T11:48:32;24.73;;;5.43;;
4694;SDS011;2361;49.540;8.390;2023-12-22T11:50:54;13.65;;;3.70;;
4694;SDS011;2361;49.540;8.390;2023-12-22T11:56:04;0.90;;;0.90;;
4694;SDS011;2361;49.540;8.390;2023-12-22T12:01:02;1.10;;;0.80;;
4694;SDS011;2361;49.540;8.390;2023-12-22T12:03:27;1.48;;;0.95;;
4694;SDS011;2361;49.540;8.390;2023-12-22T12:05:49;4.75;;;1.35;;
4694;SDS011;2361;49.540;8.390;2023-12-22T12:08:38;2.60;;;0.80;;
4694;SDS011;2361;49.540;8.390;2023-12-22T12:11:00;3.83;;;1.20;;
4694;SDS011;2361;49.540;8.390;2023-12-22T12:13:24;1.30;;;1.00;;
4694;SDS011;2361;49.540;8.390;2023-12-22T12:15:49;1.40;;;1.08;;
4694;SDS011;2361;49.540;8.390;2023-12-22T12:18:13;0.63;;;0.60;;
4694;SDS011;2361;49.540;8.390;2023-12-22T12:20:36;1.05;;;0.80;;
4694;SDS011;2361;49.540;8.390;2023-12-22T12:23:02;1.67;;;0.90;;
4694;SDS011;2361;49.540;8.390;2023-12-22T12:25:29;0.80;;;0.60;;
4694;SDS011;2361;49.540;8.390;2023-12-22T12:28:01;1.95;;;0.75;;
4694;SDS011;2361;49.540;8.390;2023-12-22T12:30:24;0.50;;;0.50;;
4694;SDS011;2361;49.540;8.390;2023-12-22T12:32:46;1.20;;;0.60;;
4694;SDS011;2361;49.540;8.390;2023-12-22T12:35:10;0.60;;;0.60;;
4694;SDS011;2361;49.540;8.390;2023-12-22T12:37:34;1.10;;;0.60;;
4694;SDS011;2361;49.540;8.390;2023-12-22T12:39:57;0.50;;;0.50;;
4694;SDS011;2361;49.540;8.390;2023-12-22T12:42:26;0.50;;;0.50;;
4694;SDS011;2361;49.540;8.390;2023-12-22T12:44:52;0.60;;;0.60;;
4694;SDS011;2361;49.540;8.390;2023-12-22T12:47:15;2.28;;;0.60;;
4694;SDS011;2361;49.540;8.390;2023-12-22T12:49:37;0.60;;;0.50;;
4694;SDS011;2361;49.540;8.390;2023-12-22T12:51:59;0.60;;;0.60;;
4694;SDS011;2361;49.540;8.390;2023-12-22T12:54:22;1.17;;;0.65;;
4694;SDS011;2361;49.540;8.390;2023-12-22T12:56:44;0.70;;;0.70;;
4694;SDS011;2361;49.540;8.390;2023-12-22T12:59:11;0.70;;;0.70;;
4694;SDS011;2361;49.540;8.390;2023-12-22T13:01:39;0.50;;;0.50;;
4694;SDS011;2361;49.540;8.390;2023-12-22T13:04:03;1.10;;;0.60;;
4694;SDS011;2361;49.540;8.390;2023-12-22T13:06:25;0.60;;;0.60;;
4694;SDS011;2361;49.540;8.390;2023-12-22T13:08:50;1.80;;;0.60;;
4694;SDS011;2361;49.540;8.390;2023-12-22T13:11:13;0.80;;;0.80;;
4694;SDS011;2361;49.540;8.390;2023-12-22T13:13:41;0.60;;;0.50;;
4694;SDS011;2361;49.540;8.390;2023-12-22T13:16:04;0.90;;;0.80;;
4694;SDS011;2361;49.540;8.390;2023-12-22T13:18:26;0.60;;;0.60;;
4694;SDS011;2361;49.540;8.390;2023-12-22T13:20:48;1.10;;;0.70;;
4694;SDS011;2361;49.540;8.390;2023-12-22T13:23:10;1.00;;;0.70;;
4694;SDS011;2361;49.540;8.390;2023-12-22T13:25:39;0.60;;;0.60;;
4694;SDS011;2361;49.540;8.390;2023-12-22T13:28:02;0.50;;;0.50;;
4694;SDS011;2361;49.540;8.390;2023-12-22T13:30:36;0.55;;;0.55;;
4694;SDS011;2361;49.540;8.390;2023-12-22T13:33:03;0.50;;;0.50;;
4694;SDS011;2361;49.540;8.390;2023-12-22T13:35:25;1.20;;;0.60;;
4694;SDS011;2361;49.540;8.390;2023-12-22T13:37:49;0.50;;;0.50;;
4694;SDS011;2361;49.540;8.390;2023-12-22T13:40:12;0.40;;;0.40;;
4694;SDS011;2361;49.540;8.390;2023-12-22T13:42:35;0.50;;;0.50;;
4694;SDS011;2361;49.540;8.390;2023-12-22T13:44:59;0.50;;;0.43;;
4694;SDS011;2361;49.540;8.390;2023-12-22T13:47:21;0.50;;;0.50;;
4694;SDS011;2361;49.540;8.390;2023-12-22T13:49:47;0.50;;;0.50;;
4694;SDS011;2361;49.540;8.390;2023-12-22T13:52:28;0.40;;;0.40;;
4694;SDS011;2361;49.540;8.390;2023-12-22T13:54:56;0.50;;;0.50;;
4694;SDS011;2361;49.540;8.390;2023-12-22T13:57:22;0.70;;;0.70;;
4694;SDS011;2361;49.540;8.390;2023-12-22T13:59:46;0.90;;;0.50;;
4694;SDS011;2361;49.540;8.390;2023-12-22T14:02:08;0.70;;;0.70;;
4694;SDS011;2361;49.540;8.390;2023-12-22T14:04:32;0.60;;;0.60;;
4694;SDS011;2361;49.540;8.390;2023-12-22T14:06:54;1.30;;;0.50;;
4694;SDS011;2361;49.540;8.390;2023-12-22T14:09:16;0.50;;;0.50;;
4694;SDS011;2361;49.540;8.390;2023-12-22T14:11:40;0.68;;;0.68;;
4694;SDS011;2361;49.540;8.390;2023-12-22T14:14:17;0.70;;;0.70;;
4694;SDS011;2361;49.540;8.390;2023-12-22T14:16:40;0.50;;;0.50;;
4694;SDS011;2361;49.540;8.390;2023-12-22T14:19:02;0.50;;;0.50;;
4694;SDS011;2361;49.540;8.390;2023-12-22T14:21:24;1.20;;;0.60;;
4694;SDS011;2361;49.540;8.390;2023-12-22T14:23:47;1.30;;;0.60;;
4694;SDS011;2361;49.540;8.390;2023-12-22T14:26:09;1.13;;;0.60;;
4694;SDS011;2361;49.540;8.390;2023-12-22T14:28:31;0.60;;;0.60;;
4694;SDS011;2361;49.540;8.390;2023-12-22T14:30:53;0.60;;;0.60;;
4694;SDS011;2361;49.540;8.390;2023-12-22T14:33:15;0.68;;;0.50;;
4694;SDS011;2361;49.540;8.390;2023-12-22T14:35:37;0.60;;;0.60;;
4694;SDS011;2361;49.540;8.390;2023-12-22T14:37:59;0.73;;;0.40;;
4694;SDS011;2361;49.540;8.390;2023-12-22T14:40:21;0.60;;;0.60;;
4694;SDS011;2361;49.540;8.390;2023-12-22T14:42:42;0.70;;;0.70;;
4694;SDS011;2361;49.540;8.390;2023-12-22T14:45:04;0.65;;;0.65;;
4694;SDS011;2361;49.540;8.390;2023-12-22T14:47:27;0.70;;;0.70;;
4694;SDS011;2361;49.540;8.390;2023-12-22T14:49:49;0.52;;;0.52;;
4694;SDS011;2361;49.540;8.390;2023-12-22T14:52:11;0.50;;;0.50;;
4694;SDS011;2361;49.540;8.390;2023-12-22T14:54:33;0.77;;;0.65;;
4694;SDS011;2361;49.540;8.390;2023-12-22T14:56:55;0.50;;;0.50;;
4694;SDS011;2361;49.540;8.390;2023-12-22T14:59:17;0.50;;;0.50;;
4694;SDS011;2361;49.540;8.390;2023-12-22T15:01:39;0.60;;;0.60;;